Time;durP1;ratioP1;P1;durP2;ratioP2;P2;SDS_P1;SDS_P2;PMS_P1;PMS_P2;Temp;Humidity;BMP_temperature;BMP_pressure;BME280_temperature;BME280_humidity;BME280_pressure;Samples;Min_cycle;Max_cycle;Signal;HPM_P1;HPM_P2
2023/07/27 00:00:35;;;;;;;0.47;0.10;;;15.10;99.90;;;;;;4934810;29;20053;-91
2023/07/27 00:03:02;;;;;;;0.47;0.20;;;15.20;99.90;;;;;;4960930;29;20031;-92
2023/07/27 00:05:27;;;;;;;0.10;0.00;;;15.20;99.90;;;;;;4963159;29;20038;-90
2023/07/27 00:07:53;;;;;;;0.00;0.00;;;15.20;99.90;;;;;;4962441;29;20035;-91
2023/07/27 00:10:20;;;;;;;0.52;0.20;;;15.20;99.90;;;;;;4959504;29;20035;-89
2023/07/27 00:12:46;;;;;;;0.03;0.03;;;15.20;99.90;;;;;;4957003;29;20034;-89
2023/07/27 00:15:12;;;;;;;0.65;0.28;;;15.20;99.90;;;;;;4940077;29;20362;-92
2023/07/27 00:17:37;;;;;;;0.00;0.00;;;15.20;99.90;;;;;;4957024;28;20038;-93
2023/07/27 00:20:03;;;;;;;0.20;0.10;;;15.30;99.90;;;;;;4939718;29;20038;-91
2023/07/27 00:22:29;;;;;;;0.73;0.20;;;15.20;99.90;;;;;;4956446;29;20034;-91
2023/07/27 00:24:55;;;;;;;1.27;0.20;;;15.20;99.90;;;;;;4939032;29;20440;-92
2023/07/27 00:27:20;;;;;;;1.75;0.20;;;15.30;99.90;;;;;;4939558;29;20039;-91
2023/07/27 00:29:46;;;;;;;0.05;0.00;;;15.20;99.90;;;;;;4958539;29;20058;-92
2023/07/27 00:32:11;;;;;;;0.00;0.00;;;15.30;99.90;;;;;;4960882;29;20035;-89
2023/07/27 00:34:37;;;;;;;0.10;0.10;;;15.30;99.90;;;;;;4945850;29;20035;-90
2023/07/27 00:37:03;;;;;;;0.28;0.20;;;15.30;99.90;;;;;;4957391;29;20538;-94
2023/07/27 00:39:28;;;;;;;0.70;0.32;;;15.30;99.90;;;;;;4941563;29;20118;-92
2023/07/27 00:41:54;;;;;;;1.67;0.10;;;15.30;99.90;;;;;;4941032;29;20046;-91
2023/07/27 00:44:19;;;;;;;0.38;0.13;;;15.30;99.90;;;;;;4942398;28;20046;-90
2023/07/27 00:46:45;;;;;;;0.63;0.15;;;15.30;99.90;;;;;;4942924;29;20032;-91
2023/07/27 00:49:11;;;;;;;0.90;0.28;;;15.30;99.90;;;;;;4940348;29;20118;-89
2023/07/27 00:51:40;;;;;;;1.45;0.20;;;15.30;99.90;;;;;;4940893;29;20031;-91
2023/07/27 00:54:08;;;;;;;0.15;0.10;;;15.30;99.90;;;;;;4940926;29;20110;-92
2023/07/27 00:56:37;;;;;;;1.60;0.10;;;15.30;99.90;;;;;;4940065;29;20045;-90
2023/07/27 00:59:04;;;;;;;2.92;0.05;;;15.30;99.90;;;;;;4956147;29;20027;-89
2023/07/27 01:01:30;;;;;;;0.43;0.10;;;15.30;99.90;;;;;;4939223;29;20126;-88
2023/07/27 01:03:56;;;;;;;0.20;0.10;;;15.30;99.90;;;;;;4946785;29;20024;-88
2023/07/27 01:06:22;;;;;;;0.40;0.08;;;15.30;99.90;;;;;;4936654;29;20482;-91
2023/07/27 01:08:48;;;;;;;0.47;0.00;;;15.40;99.90;;;;;;4919099;29;20031;-92
2023/07/27 01:11:14;;;;;;;0.32;0.05;;;15.40;99.90;;;;;;4918938;29;20055;-91
2023/07/27 01:13:39;;;;;;;0.00;0.00;;;15.40;99.90;;;;;;4935940;29;20107;-91
2023/07/27 01:16:12;;;;;;;0.13;0.08;;;15.40;99.90;;;;;;4934624;29;20036;-91
2023/07/27 01:18:57;;;;;;;1.65;0.10;;;15.40;99.90;;;;;;4935607;29;20145;-92
2023/07/27 01:21:39;;;;;;;0.52;0.03;;;15.40;99.90;;;;;;4936125;29;20020;-90
2023/07/27 01:24:36;;;;;;;0.00;0.00;;;15.40;99.90;;;;;;4921951;29;20542;-89
2023/07/27 01:27:12;;;;;;;0.35;0.10;;;15.30;99.90;;;;;;4922132;29;20040;-89
2023/07/27 01:30:07;;;;;;;0.30;0.13;;;15.30;99.90;;;;;;4936462;29;20110;-91
2023/07/27 01:32:35;;;;;;;0.57;0.05;;;15.30;99.90;;;;;;4919538;29;20039;-91
2023/07/27 01:35:04;;;;;;;0.03;0.00;;;15.30;99.90;;;;;;4920212;29;20061;-91
2023/07/27 01:37:31;;;;;;;0.10;0.10;;;15.30;99.90;;;;;;4919173;29;20051;-92
2023/07/27 01:39:58;;;;;;;0.10;0.00;;;15.30;99.90;;;;;;4935915;29;20088;-92
2023/07/27 01:42:24;;;;;;;0.00;0.00;;;15.30;99.90;;;;;;4934618;29;20035;-91
2023/07/27 01:44:51;;;;;;;0.30;0.10;;;15.30;99.90;;;;;;4919991;29;20035;-92
2023/07/27 01:47:19;;;;;;;0.10;0.00;;;15.30;99.90;;;;;;4919013;29;20087;-92
2023/07/27 01:49:46;;;;;;;0.08;0.05;;;15.30;99.90;;;;;;4919133;29;20028;-92
2023/07/27 01:52:15;;;;;;;0.00;0.00;;;15.30;99.90;;;;;;4920039;29;20034;-91
2023/07/27 01:54:41;;;;;;;0.20;0.20;;;15.30;99.90;;;;;;4936997;29;20039;-92
2023/07/27 01:57:09;;;;;;;0.13;0.00;;;15.30;99.90;;;;;;4935308;29;20397;-91
2023/07/27 01:59:37;;;;;;;0.00;0.00;;;15.30;99.90;;;;;;4934979;29;20099;-93
2023/07/27 02:02:03;;;;;;;0.00;0.00;;;15.30;99.90;;;;;;4936389;29;20507;-92
2023/07/27 02:04:30;;;;;;;0.10;0.10;;;15.30;99.90;;;;;;4936232;29;20095;-94
2023/07/27 02:06:55;;;;;;;0.25;0.10;;;15.30;99.90;;;;;;4934699;29;20115;-91
2023/07/27 02:09:21;;;;;;;0.08;0.00;;;15.30;99.90;;;;;;4918349;29;20032;-92
2023/07/27 02:11:53;;;;;;;0.10;0.08;;;15.30;99.90;;;;;;4919606;29;20043;-92
2023/07/27 02:14:40;;;;;;;0.20;0.10;;;15.30;99.90;;;;;;4919753;29;20027;-89
2023/07/27 02:17:12;;;;;;;0.65;0.10;;;15.30;99.90;;;;;;4940502;29;20028;-94
2023/07/27 02:19:42;;;;;;;0.00;0.00;;;15.40;99.90;;;;;;4935471;29;20054;-90
2023/07/27 02:22:09;;;;;;;0.75;0.17;;;15.40;99.90;;;;;;4919011;29;20032;-92
2023/07/27 02:24:35;;;;;;;0.00;0.00;;;15.40;99.90;;;;;;4919667;29;20034;-93
2023/07/27 02:27:01;;;;;;;0.75;0.10;;;15.40;99.90;;;;;;4935191;29;20046;-92
2023/07/27 02:29:26;;;;;;;0.00;0.00;;;15.40;99.90;;;;;;4936409;29;20032;-92
2023/07/27 02:31:52;;;;;;;0.20;0.00;;;15.40;99.90;;;;;;4919336;29;20076;-92
2023/07/27 02:34:19;;;;;;;1.05;0.00;;;15.40;99.90;;;;;;4919319;29;20446;-93
2023/07/27 02:36:45;;;;;;;0.03;0.00;;;15.40;99.90;;;;;;4919796;29;20055;-92
2023/07/27 02:39:11;;;;;;;0.10;0.10;;;15.50;99.90;;;;;;4935738;29;20038;-92
2023/07/27 02:41:36;;;;;;;0.90;0.00;;;15.40;99.90;;;;;;4919137;29;20024;-92
2023/07/27 02:44:02;;;;;;;1.60;0.10;;;15.50;99.90;;;;;;4919942;29;20031;-92
2023/07/27 02:46:27;;;;;;;0.28;0.00;;;15.50;99.90;;;;;;4938295;29;20418;-91
2023/07/27 02:48:55;;;;;;;0.00;0.00;;;15.50;99.90;;;;;;4938758;29;20508;-91
2023/07/27 02:51:21;;;;;;;3.42;0.20;;;15.50;99.90;;;;;;4935776;29;20024;-92
2023/07/27 02:53:46;;;;;;;0.65;0.15;;;15.50;99.90;;;;;;4934521;29;20038;-92
2023/07/27 02:56:12;;;;;;;0.60;0.03;;;15.50;99.90;;;;;;4918857;29;20048;-91
2023/07/27 02:58:37;;;;;;;0.40;0.00;;;15.50;99.90;;;;;;4919153;29;20107;-92
2023/07/27 03:01:03;;;;;;;0.10;0.10;;;15.60;99.90;;;;;;4939634;29;20036;-93
2023/07/27 03:03:29;;;;;;;0.20;0.08;;;15.60;99.90;;;;;;4938068;29;20047;-93
2023/07/27 03:05:59;;;;;;;0.52;0.20;;;15.60;99.90;;;;;;4944124;29;20434;-91
2023/07/27 03:08:29;;;;;;;3.13;0.30;;;15.50;99.90;;;;;;4927645;29;20047;-93
2023/07/27 03:10:55;;;;;;;0.47;0.20;;;15.60;99.90;;;;;;4944717;29;20090;-93
2023/07/27 03:13:20;;;;;;;0.45;0.20;;;15.60;99.90;;;;;;4940760;29;20041;-91
2023/07/27 03:15:46;;;;;;;0.20;0.20;;;15.60;99.90;;;;;;4940512;29;20482;-92
2023/07/27 03:18:12;;;;;;;1.48;0.30;;;15.60;99.90;;;;;;4939749;29;20028;-92
2023/07/27 03:20:42;;;;;;;0.68;0.32;;;15.60;99.90;;;;;;4939866;29;20039;-93
2023/07/27 03:23:08;;;;;;;0.30;0.30;;;15.60;99.90;;;;;;4922456;29;20027;-92
2023/07/27 03:25:37;;;;;;;0.80;0.50;;;15.60;99.90;;;;;;4922149;29;20078;-93
2023/07/27 03:28:08;;;;;;;0.68;0.55;;;15.60;99.90;;;;;;4921810;29;20091;-91
2023/07/27 03:30:38;;;;;;;0.50;0.43;;;15.60;99.90;;;;;;4938631;29;20028;-91
2023/07/27 03:33:07;;;;;;;1.85;0.75;;;15.60;99.90;;;;;;4938459;29;20038;-91
2023/07/27 03:35:33;;;;;;;1.20;1.10;;;15.60;99.90;;;;;;4938433;29;20024;-93
2023/07/27 03:37:59;;;;;;;0.77;0.70;;;15.60;99.90;;;;;;4938120;29;20160;-92
2023/07/27 03:40:25;;;;;;;1.42;0.80;;;15.60;99.90;;;;;;4921272;29;20059;-92
2023/07/27 03:42:50;;;;;;;1.25;1.02;;;15.60;99.90;;;;;;4921213;29;20035;-92
2023/07/27 03:45:16;;;;;;;1.52;1.05;;;15.70;99.90;;;;;;4921500;29;20020;-93
2023/07/27 03:47:43;;;;;;;0.98;0.95;;;15.60;99.90;;;;;;4937927;29;20043;-93
2023/07/27 03:50:09;;;;;;;1.50;1.40;;;15.60;99.90;;;;;;4921424;29;20168;-95
2023/07/27 03:52:35;;;;;;;1.30;1.20;;;15.60;99.90;;;;;;4921126;29;20114;-94
2023/07/27 03:55:00;;;;;;;1.17;1.08;;;15.70;99.90;;;;;;4921458;29;20442;-94
2023/07/27 03:57:26;;;;;;;3.10;1.25;;;15.70;99.90;;;;;;4921687;29;20027;-93
2023/07/27 03:59:55;;;;;;;2.72;1.10;;;15.60;99.90;;;;;;4926724;29;20036;-91
2023/07/27 04:02:22;;;;;;;1.02;1.02;;;15.70;99.90;;;;;;4931972;29;20027;-90
2023/07/27 04:04:48;;;;;;;1.00;0.90;;;15.70;99.90;;;;;;4927621;29;20100;-93
2023/07/27 04:07:14;;;;;;;1.20;1.10;;;15.70;99.90;;;;;;4938120;29;20043;-92
2023/07/27 04:09:39;;;;;;;1.15;1.05;;;15.70;99.90;;;;;;4920716;29;20032;-92
2023/07/27 04:12:05;;;;;;;3.50;1.38;;;15.70;99.90;;;;;;4921185;29;20042;-94
2023/07/27 04:14:31;;;;;;;1.40;1.30;;;15.70;99.90;;;;;;4920628;29;20038;-95
2023/07/27 04:16:57;;;;;;;3.88;1.65;;;15.70;99.90;;;;;;4920575;29;20024;-95
2023/07/27 04:19:22;;;;;;;2.53;1.40;;;15.80;99.90;;;;;;4937376;29;20111;-93
2023/07/27 04:21:48;;;;;;;2.70;0.90;;;15.70;99.90;;;;;;4920526;29;20027;-94
2023/07/27 04:24:14;;;;;;;2.75;0.70;;;15.80;99.90;;;;;;4920601;29;20122;-91
2023/07/27 04:26:39;;;;;;;4.30;0.60;;;15.70;99.90;;;;;;4937619;29;20504;-92
2023/07/27 04:29:05;;;;;;;2.05;0.63;;;15.80;99.90;;;;;;4937116;29;20389;-93
2023/07/27 04:31:30;;;;;;;1.73;0.93;;;15.70;99.90;;;;;;4937661;29;20046;-94
2023/07/27 04:33:56;;;;;;;1.65;0.43;;;15.80;99.90;;;;;;4920189;29;20059;-95
2023/07/27 04:36:22;;;;;;;4.40;0.55;;;15.80;99.90;;;;;;4919929;29;20071;-94
2023/07/27 04:38:47;;;;;;;0.57;0.30;;;15.80;99.90;;;;;;4937475;29;20047;-95
2023/07/27 04:41:13;;;;;;;1.23;0.30;;;15.80;99.90;;;;;;4937187;29;20152;-94
2023/07/27 04:43:39;;;;;;;0.45;0.30;;;15.80;99.90;;;;;;4919940;29;20455;-91
2023/07/27 04:46:04;;;;;;;0.52;0.30;;;15.80;99.90;;;;;;4937173;29;20032;-94
2023/07/27 04:48:31;;;;;;;1.85;0.55;;;15.90;99.90;;;;;;4921011;29;20031;-93
2023/07/27 04:50:56;;;;;;;6.53;0.90;;;15.90;99.90;;;;;;4940170;29;20039;-93
2023/07/27 04:53:22;;;;;;;0.47;0.40;;;15.90;99.90;;;;;;4939735;29;20038;-93
2023/07/27 04:55:48;;;;;;;2.05;0.55;;;15.90;99.90;;;;;;4939109;29;20027;-91
2023/07/27 04:58:13;;;;;;;0.80;0.68;;;15.90;99.90;;;;;;4938873;29;20468;-91
2023/07/27 05:00:39;;;;;;;2.20;0.50;;;16.00;99.90;;;;;;4955894;29;20028;-92
2023/07/27 05:03:05;;;;;;;4.28;0.52;;;16.00;99.90;;;;;;4938854;29;20034;-92
2023/07/27 05:05:30;;;;;;;1.70;0.35;;;16.00;99.90;;;;;;4938693;29;20439;-93
2023/07/27 05:07:56;;;;;;;0.20;0.20;;;16.00;99.90;;;;;;4956005;29;20054;-90
2023/07/27 05:10:23;;;;;;;0.20;0.20;;;16.00;99.90;;;;;;4938808;29;20020;-92
2023/07/27 05:12:49;;;;;;;0.85;0.30;;;16.00;99.90;;;;;;4955949;29;20069;-92
2023/07/27 05:15:15;;;;;;;0.32;0.20;;;16.10;99.90;;;;;;4955867;29;20461;-91
2023/07/27 05:17:41;;;;;;;0.93;0.32;;;16.10;99.90;;;;;;4956585;28;20054;-93
2023/07/27 05:20:07;;;;;;;0.68;0.30;;;16.10;99.90;;;;;;4956709;29;20465;-92
2023/07/27 05:22:33;;;;;;;0.65;0.20;;;16.10;99.90;;;;;;4938447;29;20034;-92
2023/07/27 05:24:59;;;;;;;0.80;0.20;;;16.20;99.90;;;;;;4938810;29;20029;-90
2023/07/27 05:27:25;;;;;;;0.20;0.20;;;16.20;99.90;;;;;;4944322;29;20279;-90
2023/07/27 05:29:50;;;;;;;6.53;0.50;;;16.20;99.90;;;;;;4972987;29;20019;-92
2023/07/27 05:32:16;;;;;;;0.28;0.10;;;16.20;99.90;;;;;;4952780;29;20135;-94
2023/07/27 05:34:42;;;;;;;2.17;0.65;;;16.30;99.90;;;;;;4939409;29;20477;-93
2023/07/27 05:37:07;;;;;;;0.75;0.20;;;16.30;99.90;;;;;;4939631;29;20059;-91
2023/07/27 05:39:33;;;;;;;3.40;0.25;;;16.40;99.90;;;;;;4941657;29;20027;-93
2023/07/27 05:41:58;;;;;;;1.48;0.20;;;16.40;99.90;;;;;;4938732;29;20082;-92
2023/07/27 05:44:24;;;;;;;1.45;0.20;;;16.40;99.90;;;;;;4939824;29;20031;-92
2023/07/27 05:46:53;;;;;;;0.20;0.17;;;16.40;99.90;;;;;;4966588;29;20027;-89
2023/07/27 05:49:19;;;;;;;0.63;0.22;;;16.50;99.90;;;;;;4957056;29;20272;-92
2023/07/27 05:51:44;;;;;;;1.75;0.20;;;16.50;99.90;;;;;;4939119;29;20027;-92
2023/07/27 05:54:10;;;;;;;2.50;0.30;;;16.50;99.90;;;;;;4955734;29;20054;-92
2023/07/27 05:56:36;;;;;;;0.10;0.10;;;16.60;99.90;;;;;;4955388;29;20094;-92
2023/07/27 05:59:01;;;;;;;1.98;0.20;;;16.60;99.90;;;;;;4955510;29;20027;-90
2023/07/27 06:01:27;;;;;;;0.30;0.13;;;16.70;99.90;;;;;;4956785;29;20059;-92
2023/07/27 06:03:53;;;;;;;1.20;0.10;;;16.70;99.90;;;;;;4955902;29;20062;-87
2023/07/27 06:06:18;;;;;;;1.27;0.20;;;16.70;99.90;;;;;;4971603;29;20047;-91
2023/07/27 06:08:44;;;;;;;2.08;0.10;;;16.80;99.90;;;;;;4959398;29;20023;-91
2023/07/27 06:11:09;;;;;;;0.35;0.17;;;16.80;99.90;;;;;;4961346;29;20023;-91
2023/07/27 06:13:36;;;;;;;3.20;0.20;;;16.80;99.90;;;;;;4940029;29;20031;-91
2023/07/27 06:16:02;;;;;;;1.40;0.20;;;16.90;99.90;;;;;;4940838;28;20076;-89
2023/07/27 06:18:28;;;;;;;0.30;0.30;;;16.90;99.90;;;;;;4957119;29;20030;-89
2023/07/27 06:20:54;;;;;;;1.02;0.22;;;16.90;99.90;;;;;;4940005;29;20035;-90
2023/07/27 06:23:19;;;;;;;0.10;0.10;;;16.90;99.90;;;;;;4957433;29;20024;-89
2023/07/27 06:25:45;;;;;;;0.95;0.20;;;17.00;99.90;;;;;;4956790;29;20050;-91
2023/07/27 06:28:12;;;;;;;0.08;0.05;;;17.00;99.90;;;;;;4956687;29;20086;-89
2023/07/27 06:30:38;;;;;;;0.10;0.10;;;17.00;99.90;;;;;;4939294;29;20035;-91
2023/07/27 06:33:05;;;;;;;0.30;0.10;;;17.00;99.90;;;;;;4938761;29;20029;-90
2023/07/27 06:35:32;;;;;;;3.75;0.20;;;17.10;99.90;;;;;;4955369;29;20023;-90
2023/07/27 06:37:57;;;;;;;0.60;0.20;;;17.10;99.90;;;;;;4938200;29;20476;-89
2023/07/27 06:40:24;;;;;;;0.20;0.13;;;17.20;99.90;;;;;;4938115;29;20034;-91
2023/07/27 06:42:49;;;;;;;0.20;0.10;;;17.20;99.90;;;;;;4955680;28;20083;-89
2023/07/27 06:45:15;;;;;;;0.68;0.10;;;17.30;99.90;;;;;;4943274;29;20408;-92
2023/07/27 06:47:41;;;;;;;0.10;0.00;;;17.30;99.90;;;;;;4943272;29;20481;-91
2023/07/27 06:50:07;;;;;;;1.40;0.08;;;17.40;99.90;;;;;;4960205;29;20374;-91
2023/07/27 06:52:32;;;;;;;2.45;0.17;;;17.40;99.90;;;;;;4961908;29;20039;-90
2023/07/27 06:54:58;;;;;;;0.10;0.10;;;17.40;99.90;;;;;;4946551;29;20030;-91
2023/07/27 06:57:27;;;;;;;2.50;0.30;;;17.40;99.90;;;;;;4961938;29;20480;-91
2023/07/27 06:59:53;;;;;;;0.35;0.10;;;17.40;99.90;;;;;;4940959;29;20023;-92
2023/07/27 07:02:19;;;;;;;0.17;0.17;;;17.40;99.90;;;;;;4958207;29;20535;-92
2023/07/27 07:04:45;;;;;;;0.40;0.20;;;17.40;99.90;;;;;;4957867;29;20059;-93
2023/07/27 07:07:11;;;;;;;0.57;0.25;;;17.50;99.90;;;;;;4941108;29;20070;-92
2023/07/27 07:09:38;;;;;;;4.40;0.43;;;17.50;99.90;;;;;;4954914;29;20101;-92
2023/07/27 07:12:06;;;;;;;0.30;0.30;;;17.50;99.90;;;;;;4957911;29;20384;-92
2023/07/27 07:14:32;;;;;;;1.55;0.40;;;17.50;99.90;;;;;;4940644;29;20038;-93
2023/07/27 07:16:59;;;;;;;1.48;0.40;;;17.50;99.90;;;;;;4954773;28;20019;-92
2023/07/27 07:19:25;;;;;;;0.85;0.40;;;17.60;99.90;;;;;;4958075;29;20051;-92
2023/07/27 07:21:50;;;;;;;0.73;0.50;;;17.60;99.90;;;;;;4958434;29;20359;-92
2023/07/27 07:24:16;;;;;;;2.42;1.08;;;17.60;99.90;;;;;;4958654;29;20102;-93
2023/07/27 07:26:42;;;;;;;1.10;1.00;;;17.60;99.90;;;;;;4941611;29;20043;-91
2023/07/27 07:29:08;;;;;;;1.10;1.00;;;17.60;99.90;;;;;;4943252;29;20552;-92
2023/07/27 07:31:34;;;;;;;1.90;0.90;;;17.60;99.90;;;;;;4959794;29;20035;-92
2023/07/27 07:33:59;;;;;;;1.98;1.63;;;17.60;99.90;;;;;;4950897;29;20054;-92
2023/07/27 07:36:27;;;;;;;2.05;1.20;;;17.60;99.90;;;;;;4951176;29;20592;-92
2023/07/27 07:38:53;;;;;;;1.63;1.20;;;17.70;99.90;;;;;;4958075;29;20034;-92
2023/07/27 07:41:19;;;;;;;2.55;1.00;;;17.60;99.90;;;;;;4957884;29;20035;-94
2023/07/27 07:43:46;;;;;;;1.45;0.60;;;17.70;99.90;;;;;;4940210;29;20031;-93
2023/07/27 07:46:15;;;;;;;0.60;0.60;;;17.60;99.90;;;;;;4943376;29;20031;-93
2023/07/27 07:48:57;;;;;;;0.80;0.80;;;17.60;99.90;;;;;;4924184;29;20209;-94
2023/07/27 07:51:35;;;;;;;0.90;0.52;;;17.60;99.90;;;;;;4947504;29;20016;-94
2023/07/27 07:54:07;;;;;;;0.60;0.55;;;17.70;99.90;;;;;;4937084;29;20082;-94
2023/07/27 07:56:35;;;;;;;0.50;0.50;;;17.70;99.90;;;;;;4939123;29;20035;-93
2023/07/27 07:59:05;;;;;;;1.23;1.00;;;17.70;99.90;;;;;;4951899;29;20444;-92
2023/07/27 08:01:33;;;;;;;;;;;17.70;99.90;;;;;;4957554;29;20059;-93
2023/07/27 08:04:00;;;;;;;0.85;0.80;;;17.70;99.90;;;;;;4954533;29;19915;-93
2023/07/27 08:06:28;;;;;;;0.80;0.70;;;17.70;99.90;;;;;;4940994;29;20054;-94
2023/07/27 08:09:00;;;;;;;0.82;0.80;;;17.80;99.90;;;;;;4939111;29;20028;-93
2023/07/27 08:11:28;;;;;;;0.80;0.80;;;17.70;99.90;;;;;;4956533;29;20055;-93
2023/07/27 08:13:58;;;;;;;0.98;0.90;;;17.80;99.90;;;;;;4938682;29;20047;-94
2023/07/27 08:16:25;;;;;;;;;;;17.80;99.90;;;;;;4956630;28;20031;-93
2023/07/27 08:19:37;;;;;;;0.85;0.60;;;17.70;99.90;;;;;;4939016;29;19953;-94
2023/07/27 08:22:30;;;;;;;2.00;0.82;;;17.80;99.90;;;;;;4886271;29;20023;-93
2023/07/27 08:24:57;;;;;;;1.02;0.93;;;17.80;99.90;;;;;;4961435;29;20027;-94
2023/07/27 08:27:24;;;;;;;3.47;1.02;;;17.80;99.90;;;;;;4952703;29;20035;-95
2023/07/27 08:30:07;;;;;;;1.20;1.10;;;17.80;99.90;;;;;;4966170;29;20022;-92
2023/07/27 08:32:35;;;;;;;1.50;1.02;;;17.90;99.90;;;;;;4964051;29;20023;-95
2023/07/27 08:35:34;;;;;;;1.60;1.13;;;17.90;99.90;;;;;;4944252;29;20473;-93
2023/07/27 08:38:10;;;;;;;4.35;1.10;;;18.00;99.90;;;;;;4946731;28;20050;-93
2023/07/27 08:40:39;;;;;;;3.92;1.98;;;18.00;99.90;;;;;;4952935;29;20023;-93
2023/07/27 08:43:11;;;;;;;2.55;1.38;;;18.00;99.90;;;;;;4955710;29;20027;-94
2023/07/27 08:45:42;;;;;;;1.90;1.50;;;18.10;99.90;;;;;;4947282;29;20027;-93
2023/07/27 08:48:10;;;;;;;1.92;1.60;;;18.10;99.90;;;;;;4946779;29;20059;-95
2023/07/27 08:51:10;;;;;;;3.75;1.40;;;18.20;99.90;;;;;;4949503;28;20026;-93
2023/07/27 08:53:37;;;;;;;3.10;1.20;;;18.20;99.90;;;;;;4927573;29;20035;-92
2023/07/27 08:56:05;;;;;;;0.88;0.80;;;18.40;99.90;;;;;;4957504;29;20138;-94
2023/07/27 08:58:33;;;;;;;1.63;1.52;;;18.40;99.90;;;;;;4951207;29;20024;-93
2023/07/27 09:01:00;;;;;;;1.02;0.93;;;18.40;99.90;;;;;;4938242;29;20054;-94
2023/07/27 09:03:28;;;;;;;0.98;0.93;;;18.40;99.90;;;;;;4956518;29;20024;-93
2023/07/27 09:06:03;;;;;;;0.93;0.88;;;18.40;99.90;;;;;;4938884;29;20047;-92
2023/07/27 09:08:31;;;;;;;0.80;0.80;;;18.50;99.90;;;;;;4932165;29;20042;-91
2023/07/27 09:11:10;;;;;;;1.42;1.00;;;18.50;99.90;;;;;;4962128;29;20038;-93
2023/07/27 09:13:38;;;;;;;0.90;0.80;;;18.60;99.90;;;;;;4950742;29;20042;-92
2023/07/27 09:16:09;;;;;;;0.90;0.90;;;18.60;99.90;;;;;;4956419;29;20031;-89
2023/07/27 09:18:37;;;;;;;1.00;0.90;;;18.70;99.90;;;;;;4971529;29;20027;-90
2023/07/27 09:21:10;;;;;;;1.52;0.75;;;18.80;99.90;;;;;;4954427;29;20203;-92
2023/07/27 09:23:38;;;;;;;0.95;0.73;;;18.90;99.90;;;;;;4958115;29;20042;-95
2023/07/27 09:26:09;;;;;;;0.90;0.90;;;18.80;99.90;;;;;;4952606;29;20027;-93
2023/07/27 09:28:36;;;;;;;1.90;0.75;;;18.90;99.90;;;;;;4948916;29;20027;-93
2023/07/27 09:31:04;;;;;;;0.80;0.80;;;18.90;99.90;;;;;;4946509;29;20027;-91
2023/07/27 09:33:32;;;;;;;0.80;0.80;;;18.90;99.90;;;;;;4960683;29;20050;-93
2023/07/27 09:36:02;;;;;;;0.90;0.90;;;19.00;99.90;;;;;;4958868;29;20027;-91
2023/07/27 09:38:29;;;;;;;0.85;0.70;;;19.00;99.90;;;;;;4941515;29;20062;-90
2023/07/27 09:40:57;;;;;;;2.45;1.00;;;19.00;99.90;;;;;;4957328;29;20059;-93
2023/07/27 09:43:26;;;;;;;1.88;1.20;;;19.10;99.90;;;;;;4940227;29;20122;-94
2023/07/27 09:45:57;;;;;;;2.80;1.45;;;19.20;99.90;;;;;;4954763;29;20035;-92
2023/07/27 09:48:24;;;;;;;1.50;1.38;;;19.30;99.90;;;;;;4956039;29;20123;-92
2023/07/27 09:50:53;;;;;;;1.67;1.20;;;19.50;99.90;;;;;;4956282;29;20027;-94
2023/07/27 09:53:21;;;;;;;2.10;1.20;;;19.70;99.90;;;;;;4938026;29;20038;-92
2023/07/27 09:55:50;;;;;;;1.50;1.40;;;19.80;99.90;;;;;;4938169;29;20027;-92
2023/07/27 09:58:16;;;;;;;1.35;1.05;;;20.00;99.90;;;;;;4920027;29;20040;-91
2023/07/27 10:00:42;;;;;;;1.08;1.00;;;20.10;99.90;;;;;;4937394;29;20023;-92
2023/07/27 10:03:09;;;;;;;1.00;1.00;;;20.10;99.90;;;;;;4938337;29;20035;-90
2023/07/27 10:05:48;;;;;;;1.10;1.00;;;20.10;99.90;;;;;;4922980;29;20035;-91
2023/07/27 10:08:16;;;;;;;2.55;1.15;;;20.10;99.90;;;;;;4946888;29;20114;-92
2023/07/27 10:10:44;;;;;;;3.45;1.42;;;20.10;99.90;;;;;;4953620;29;20031;-94
2023/07/27 10:13:37;;;;;;;0.60;0.47;;;19.90;99.90;;;;;;4938850;29;20027;-93
2023/07/27 10:16:08;;;;;;;1.85;0.50;;;19.70;99.90;;;;;;4934249;29;20067;-94
2023/07/27 10:18:44;;;;;;;1.15;0.40;;;19.50;99.90;;;;;;4937877;29;20024;-94
2023/07/27 10:21:25;;;;;;;2.05;0.20;;;19.40;99.90;;;;;;4940537;29;20024;-93
2023/07/27 10:23:58;;;;;;;0.20;0.10;;;19.30;99.90;;;;;;4923033;29;20485;-93
2023/07/27 10:26:43;;;;;;;0.63;0.30;;;19.20;99.90;;;;;;4954935;29;20031;-92
2023/07/27 10:29:23;;;;;;;0.40;0.20;;;19.20;99.90;;;;;;4940047;29;20039;-94
2023/07/27 10:32:00;;;;;;;0.88;0.20;;;19.10;99.90;;;;;;4929329;29;20034;-91
2023/07/27 10:34:28;;;;;;;0.20;0.10;;;19.10;99.90;;;;;;4942590;29;20035;-92
2023/07/27 10:36:57;;;;;;;1.55;0.50;;;19.20;99.90;;;;;;4952485;29;20059;-92
2023/07/27 10:40:10;;;;;;;0.52;0.30;;;19.20;99.90;;;;;;4939510;29;20066;-92
2023/07/27 10:43:31;;;;;;;;;;;;;;;;;;;;;
2023/07/27 10:45:57;;;;;;;0.35;0.35;;;19.20;99.90;;;;;;4956089;29;20051;-91
2023/07/27 10:48:23;;;;;;;0.60;0.60;;;19.10;99.90;;;;;;4959551;29;20118;-90
2023/07/27 10:50:50;;;;;;;0.85;0.40;;;19.10;99.90;;;;;;4939716;29;20028;-90
2023/07/27 10:53:16;;;;;;;2.17;0.30;;;19.10;99.90;;;;;;4929627;29;20043;-90
2023/07/27 10:55:42;;;;;;;1.90;0.60;;;19.10;99.90;;;;;;4945761;29;20505;-91
2023/07/27 10:58:10;;;;;;;1.80;0.50;;;19.00;99.90;;;;;;4958763;29;20035;-92
2023/07/27 11:00:37;;;;;;;2.50;0.40;;;18.90;99.90;;;;;;4941571;29;20024;-91
2023/07/27 11:03:03;;;;;;;1.40;0.80;;;18.90;99.90;;;;;;4942971;29;20054;-91
2023/07/27 11:05:28;;;;;;;1.00;0.50;;;18.80;99.90;;;;;;4964806;29;20039;-92
2023/07/27 11:08:01;;;;;;;0.73;0.50;;;18.80;99.90;;;;;;4931295;29;20047;-90
2023/07/27 11:10:32;;;;;;;0.43;0.43;;;18.80;99.90;;;;;;4928304;29;20023;-91
2023/07/27 11:12:58;;;;;;;1.65;0.50;;;18.80;99.90;;;;;;4928288;29;20035;-93
2023/07/27 11:15:29;;;;;;;0.30;0.30;;;18.70;99.90;;;;;;4939898;29;20488;-92
2023/07/27 11:17:57;;;;;;;0.75;0.70;;;18.70;99.90;;;;;;4922798;29;20034;-91
2023/07/27 11:20:30;;;;;;;1.35;0.60;;;18.70;99.90;;;;;;4921837;29;20039;-93
2023/07/27 11:22:57;;;;;;;2.17;0.50;;;18.70;99.90;;;;;;4931854;29;20174;-92
2023/07/27 11:25:24;;;;;;;2.95;0.40;;;18.80;99.90;;;;;;4938486;29;20638;-92
2023/07/27 11:27:51;;;;;;;1.45;0.77;;;18.90;99.90;;;;;;4928839;29;20598;-93
2023/07/27 11:30:19;;;;;;;1.48;0.68;;;18.90;99.90;;;;;;4938550;29;20454;-93
2023/07/27 11:33:02;;;;;;;2.10;0.90;;;18.90;99.90;;;;;;4929462;29;20035;-92
2023/07/27 11:35:27;;;;;;;0.88;0.80;;;19.00;99.90;;;;;;4936657;29;20652;-93
2023/07/27 11:37:53;;;;;;;3.03;1.05;;;19.10;99.90;;;;;;4928451;29;20056;-89
2023/07/27 11:40:20;;;;;;;2.40;1.20;;;19.10;99.90;;;;;;4921148;29;20031;-90
2023/07/27 11:42:46;;;;;;;3.72;0.98;;;19.10;99.90;;;;;;4953232;29;20590;-90
2023/07/27 11:45:12;;;;;;;2.58;0.90;;;19.20;99.90;;;;;;4946503;29;20059;-90
2023/07/27 11:47:38;;;;;;;0.90;0.90;;;19.20;99.90;;;;;;4954147;29;20043;-89
2023/07/27 11:50:09;;;;;;;1.20;1.10;;;19.10;99.90;;;;;;4969499;29;20023;-90
2023/07/27 11:52:39;;;;;;;0.93;0.93;;;19.10;99.90;;;;;;4933849;29;20055;-91
2023/07/27 11:55:05;;;;;;;1.50;1.13;;;19.00;99.90;;;;;;4940193;29;20028;-92
2023/07/27 11:57:33;;;;;;;2.45;0.90;;;19.00;99.90;;;;;;4949968;29;20078;-92
2023/07/27 12:00:12;;;;;;;2.45;1.20;;;19.00;99.90;;;;;;4921173;29;20031;-94
2023/07/27 12:02:45;;;;;;;2.40;1.55;;;18.90;99.90;;;;;;4920568;29;20024;-93
2023/07/27 12:05:15;;;;;;;1.25;1.15;;;18.90;99.90;;;;;;4938470;29;20043;-92
2023/07/27 12:07:42;;;;;;;4.50;1.45;;;18.90;99.90;;;;;;4920944;29;20182;-94
2023/07/27 12:10:11;;;;;;;1.77;1.05;;;18.90;99.90;;;;;;4938064;29;20390;-92
2023/07/27 12:13:11;;;;;;;1.65;0.90;;;18.80;99.90;;;;;;4937500;29;20024;-92
2023/07/27 12:15:38;;;;;;;1.88;0.95;;;18.80;99.90;;;;;;4883017;28;20040;-92
2023/07/27 12:18:07;;;;;;;3.42;0.98;;;18.70;99.90;;;;;;4960001;29;20027;-93
2023/07/27 12:20:34;;;;;;;3.03;0.85;;;18.70;99.90;;;;;;4966428;29;20027;-90
2023/07/27 12:23:00;;;;;;;0.80;0.80;;;18.70;99.90;;;;;;4946776;29;20119;-94
2023/07/27 12:25:27;;;;;;;2.40;1.13;;;18.70;99.90;;;;;;4963889;29;20059;-90
2023/07/27 12:27:53;;;;;;;3.60;1.33;;;18.60;99.90;;;;;;4962187;29;20043;-94
2023/07/27 12:30:22;;;;;;;1.52;1.27;;;18.60;99.90;;;;;;4959662;29;20031;-91
2023/07/27 12:32:48;;;;;;;1.17;1.15;;;18.60;99.90;;;;;;4952108;29;20023;-92
2023/07/27 12:35:14;;;;;;;1.30;1.20;;;18.60;99.90;;;;;;4938958;29;20115;-94
2023/07/27 12:37:39;;;;;;;4.35;1.20;;;18.60;99.90;;;;;;4923025;29;20063;-93
2023/07/27 12:40:07;;;;;;;1.15;1.05;;;18.70;99.90;;;;;;4932243;28;20044;-94
2023/07/27 12:42:33;;;;;;;1.10;1.00;;;18.80;99.90;;;;;;4939664;29;20030;-91
2023/07/27 12:44:58;;;;;;;1.85;1.20;;;18.90;99.90;;;;;;4922754;29;20032;-93
2023/07/27 12:47:24;;;;;;;1.30;1.15;;;18.90;99.90;;;;;;4965332;29;20031;-94
2023/07/27 12:49:50;;;;;;;1.27;1.13;;;18.80;99.90;;;;;;4968821;29;20488;-94
2023/07/27 12:52:15;;;;;;;2.80;1.58;;;18.70;99.90;;;;;;4945286;29;20027;-92
2023/07/27 12:54:41;;;;;;;2.45;1.40;;;18.70;99.90;;;;;;4929083;29;20064;-93